createdAt,value
2019-02-17T00:00:04.795Z,14.70
2019-02-17T00:02:32.648Z,14.00
2019-02-17T00:05:00.719Z,14.33
2019-02-17T00:07:28.693Z,14.75
2019-02-17T00:09:56.548Z,17.87
2019-02-17T00:12:24.326Z,17.23
2019-02-17T00:14:52.136Z,21.70
2019-02-17T00:17:19.969Z,19.70
2019-02-17T00:19:47.920Z,18.83
2019-02-17T00:22:15.701Z,18.53
2019-02-17T00:24:43.574Z,19.00
2019-02-17T00:27:30.865Z,21.23
2019-02-17T00:29:58.683Z,18.77
2019-02-17T00:32:26.496Z,17.65
2019-02-17T00:34:55.677Z,18.05
2019-02-17T00:37:23.461Z,18.07
2019-02-17T00:39:51.248Z,17.85
2019-02-17T00:42:19.274Z,18.37
2019-02-17T00:44:47.113Z,16.10
2019-02-17T00:47:15.126Z,18.02
2019-02-17T00:49:42.921Z,18.17
2019-02-17T00:52:10.709Z,17.95
2019-02-17T00:54:38.510Z,17.98
2019-02-17T00:57:05.960Z,17.73
2019-02-17T00:59:33.973Z,17.20
2019-02-17T01:02:02.052Z,17.60
2019-02-17T01:04:29.888Z,17.07
2019-02-17T01:06:57.795Z,17.17
2019-02-17T01:09:25.641Z,17.20
2019-02-17T01:11:53.402Z,17.17
2019-02-17T01:14:21.247Z,18.10
2019-02-17T01:16:49.092Z,17.12
2019-02-17T01:19:22.312Z,16.30
2019-02-17T01:21:50.132Z,16.62
2019-02-17T01:24:17.980Z,16.40
2019-02-17T01:26:45.774Z,16.93
2019-02-17T01:29:20.130Z,17.10
2019-02-17T01:31:43.209Z,16.20
2019-02-17T01:34:11.185Z,16.55
2019-02-17T01:36:39.005Z,15.85
2019-02-17T01:39:12.038Z,14.55
2019-02-17T01:41:39.861Z,14.83
2019-02-17T01:44:07.671Z,14.93
2019-02-17T01:46:35.455Z,14.35
2019-02-17T01:49:03.343Z,14.07
2019-02-17T01:51:31.125Z,13.30
2019-02-17T01:53:58.987Z,13.68
2019-02-17T01:56:26.776Z,14.35
2019-02-17T01:59:14.295Z,14.33
2019-02-17T02:01:42.106Z,13.75
2019-02-17T02:04:09.915Z,12.68
2019-02-17T02:06:37.736Z,13.05
2019-02-17T02:09:08.977Z,13.20
2019-02-17T02:11:56.255Z,12.30
2019-02-17T02:14:24.031Z,12.47
2019-02-17T02:16:51.884Z,12.43
2019-02-17T02:19:19.820Z,12.40
2019-02-17T02:21:47.616Z,12.98
2019-02-17T02:24:15.499Z,16.20
2019-02-17T02:26:43.282Z,13.62
2019-02-17T02:29:16.182Z,13.55
2019-02-17T02:31:43.969Z,12.80
2019-02-17T02:34:14.022Z,13.20
2019-02-17T02:36:42.194Z,12.28
2019-02-17T02:39:10.270Z,12.65
2019-02-17T02:41:38.066Z,12.75
2019-02-17T02:44:05.908Z,13.88
2019-02-17T02:46:33.695Z,13.50
2019-02-17T02:49:01.582Z,12.75
2019-02-17T02:51:29.420Z,14.50
2019-02-17T02:53:57.226Z,13.48
2019-02-17T02:56:25.045Z,13.83
2019-02-17T02:58:52.995Z,14.07
2019-02-17T03:01:20.933Z,13.75
2019-02-17T03:03:48.739Z,13.35
2019-02-17T03:06:29.953Z,12.58
2019-02-17T03:08:58.018Z,13.18
2019-02-17T03:11:25.812Z,13.78
2019-02-17T03:13:55.665Z,14.53
2019-02-17T03:16:23.524Z,15.20
2019-02-17T03:18:51.418Z,13.80
2019-02-17T03:21:19.222Z,13.03
2019-02-17T03:23:48.489Z,11.53
2019-02-17T03:26:16.348Z,13.15
2019-02-17T03:28:44.261Z,12.70
2019-02-17T03:31:12.059Z,14.40
2019-02-17T03:33:39.841Z,24.80
2019-02-17T03:36:07.640Z,37.23
2019-02-17T03:38:40.644Z,39.03
2019-02-17T03:41:08.397Z,34.13
2019-02-17T03:43:36.215Z,35.92
2019-02-17T03:46:03.978Z,45.03
2019-02-17T03:48:31.936Z,46.70
2019-02-17T03:50:59.727Z,30.60
2019-02-17T03:53:27.570Z,27.85
2019-02-17T03:55:55.372Z,32.58
2019-02-17T03:58:23.363Z,29.57
2019-02-17T04:00:51.114Z,23.90
2019-02-17T04:03:18.924Z,22.15
2019-02-17T04:05:46.674Z,22.52
2019-02-17T04:08:14.479Z,24.72
2019-02-17T04:10:42.239Z,22.65
2019-02-17T04:13:10.056Z,22.85
2019-02-17T04:15:37.892Z,21.77
2019-02-17T04:18:05.731Z,21.70
2019-02-17T04:20:33.521Z,20.97
2019-02-17T04:23:01.310Z,18.32
2019-02-17T04:25:29.154Z,21.00
2019-02-17T04:27:56.926Z,16.52
2019-02-17T04:30:29.342Z,16.65
2019-02-17T04:32:54.422Z,19.15
2019-02-17T04:35:22.235Z,18.40
2019-02-17T04:37:50.102Z,19.80
2019-02-17T04:40:17.940Z,16.57
2019-02-17T04:42:45.756Z,19.80
2019-02-17T04:45:15.443Z,17.05
2019-02-17T04:47:43.227Z,18.87
2019-02-17T04:50:11.021Z,15.38
2019-02-17T04:52:38.811Z,15.95
2019-02-17T04:55:06.942Z,18.15
2019-02-17T04:57:34.735Z,15.53
2019-02-17T05:00:02.904Z,16.75
2019-02-17T05:02:30.699Z,16.45
2019-02-17T05:04:58.489Z,15.48
2019-02-17T05:07:26.303Z,17.65
2019-02-17T05:09:59.270Z,16.60
2019-02-17T05:12:27.043Z,18.40
2019-02-17T05:14:54.836Z,17.45
2019-02-17T05:17:22.654Z,15.63
2019-02-17T05:20:21.089Z,17.25
2019-02-17T05:22:48.906Z,15.55
2019-02-17T05:25:18.267Z,15.98
2019-02-17T05:27:46.070Z,18.02
2019-02-17T05:30:13.850Z,19.98
2019-02-17T05:32:41.684Z,17.27
2019-02-17T05:35:21.739Z,19.65
2019-02-17T05:37:49.610Z,18.23
2019-02-17T05:40:17.387Z,17.77
2019-02-17T05:42:45.248Z,17.23
2019-02-17T05:45:13.071Z,15.95
2019-02-17T05:47:40.890Z,17.48
2019-02-17T05:50:08.683Z,17.25
2019-02-17T05:52:36.480Z,17.25
2019-02-17T05:55:04.695Z,19.17
2019-02-17T05:57:32.530Z,17.23
2019-02-17T06:00:07.073Z,16.87
2019-02-17T06:02:34.901Z,15.18
2019-02-17T06:05:02.768Z,18.17
2019-02-17T06:07:30.564Z,15.68
2019-02-17T06:10:04.060Z,23.40
2019-02-17T06:12:31.872Z,17.10
2019-02-17T06:14:59.669Z,18.95
2019-02-17T06:17:27.488Z,21.40
2019-02-17T06:20:25.834Z,23.50
2019-02-17T06:22:53.678Z,19.25
2019-02-17T06:25:21.508Z,18.95
2019-02-17T06:28:04.400Z,15.98
2019-02-17T06:30:32.215Z,20.80
2019-02-17T06:33:00.045Z,20.43
2019-02-17T06:35:27.877Z,20.23
2019-02-17T06:38:15.161Z,16.65
2019-02-17T06:40:42.970Z,20.72
2019-02-17T06:43:10.765Z,19.23
2019-02-17T06:45:38.605Z,20.25
2019-02-17T06:48:30.871Z,26.68
2019-02-17T06:50:58.706Z,16.87
2019-02-17T06:53:26.512Z,16.93
2019-02-17T06:56:05.001Z,15.03
2019-02-17T06:58:37.850Z,18.75
2019-02-17T07:01:05.691Z,15.65
2019-02-17T07:03:33.521Z,15.63
2019-02-17T07:06:39.571Z,14.45
2019-02-17T07:09:07.504Z,17.98
2019-02-17T07:11:35.336Z,16.25
2019-02-17T07:14:03.119Z,15.85
2019-02-17T07:16:30.895Z,19.10
2019-02-17T07:18:58.933Z,18.05
2019-02-17T07:21:26.707Z,17.70
2019-02-17T07:23:54.580Z,18.75
2019-02-17T07:26:22.466Z,17.82
2019-02-17T07:28:50.626Z,17.40
2019-02-17T07:31:18.394Z,18.13
2019-02-17T07:33:46.274Z,24.20
2019-02-17T07:36:14.026Z,21.50
2019-02-17T07:38:41.989Z,17.40
2019-02-17T07:41:09.799Z,17.87
2019-02-17T07:43:37.623Z,19.70
2019-02-17T07:46:05.448Z,19.67
2019-02-17T07:48:48.448Z,17.10
2019-02-17T07:51:16.259Z,16.60
2019-02-17T07:53:44.063Z,17.63
2019-02-17T07:56:11.836Z,16.60
2019-02-17T07:58:39.772Z,16.90
2019-02-17T08:01:07.586Z,16.27
2019-02-17T08:03:35.433Z,16.27
2019-02-17T08:06:03.215Z,15.23
2019-02-17T08:08:31.024Z,17.33
2019-02-17T08:11:04.069Z,21.13
2019-02-17T08:13:28.444Z,16.20
2019-02-17T08:15:56.242Z,20.10
2019-02-17T08:18:29.294Z,18.00
2019-02-17T08:20:57.097Z,14.17
2019-02-17T08:23:24.884Z,17.30
2019-02-17T08:25:52.723Z,18.20
2019-02-17T08:28:20.643Z,22.20
2019-02-17T08:30:48.408Z,21.70
2019-02-17T08:33:16.227Z,19.73
2019-02-17T08:35:44.021Z,21.67
2019-02-17T08:38:22.198Z,25.93
2019-02-17T08:40:52.352Z,21.37
2019-02-17T08:43:20.154Z,20.47
2019-02-17T08:45:47.929Z,19.47
2019-02-17T08:48:16.164Z,19.40
2019-02-17T08:50:46.662Z,20.60
2019-02-17T08:53:14.539Z,20.03
2019-02-17T08:55:42.320Z,20.03
2019-02-17T08:58:15.294Z,18.87
2019-02-17T09:00:43.099Z,16.50
2019-02-17T09:03:10.893Z,12.90
2019-02-17T09:05:44.137Z,12.23
2019-02-17T09:08:10.863Z,11.17
2019-02-17T09:10:38.776Z,11.50
2019-02-17T09:13:06.602Z,11.10
2019-02-17T09:15:34.411Z,9.73
2019-02-17T09:18:03.323Z,10.33
2019-02-17T09:20:31.133Z,10.23
2019-02-17T09:22:58.867Z,9.50
2019-02-17T09:25:26.645Z,9.40
2019-02-17T09:27:59.549Z,10.83
2019-02-17T09:30:27.377Z,9.83
2019-02-17T09:32:55.133Z,10.90
2019-02-17T09:35:22.983Z,11.07
2019-02-17T09:37:50.767Z,13.27
2019-02-17T09:40:18.583Z,14.17
2019-02-17T09:42:46.361Z,13.17
2019-02-17T09:45:14.227Z,11.67
2019-02-17T09:47:42.140Z,12.40
2019-02-17T09:50:11.349Z,11.70
2019-02-17T09:52:39.166Z,11.50
2019-02-17T09:55:07.368Z,11.73
2019-02-17T09:57:35.141Z,11.63
2019-02-17T10:00:10.339Z,22.47
2019-02-17T10:02:38.143Z,12.33
2019-02-17T10:05:06.105Z,13.13
2019-02-17T10:07:33.954Z,12.07
2019-02-17T10:10:02.005Z,12.17
2019-02-17T10:12:29.875Z,13.03
2019-02-17T10:14:57.689Z,14.80
2019-02-17T10:17:25.886Z,11.83
2019-02-17T10:20:18.363Z,12.80
2019-02-17T10:22:46.179Z,12.77
2019-02-17T10:25:13.989Z,13.20
2019-02-17T10:27:41.790Z,12.73
2019-02-17T10:30:11.455Z,12.37
2019-02-17T10:32:39.446Z,12.67
2019-02-17T10:35:07.365Z,13.07
2019-02-17T10:37:35.190Z,12.53
2019-02-17T10:40:03.876Z,12.93
2019-02-17T10:42:31.777Z,14.57
2019-02-17T10:44:59.593Z,14.10
2019-02-17T10:47:27.466Z,30.00
2019-02-17T10:49:55.668Z,20.03
2019-02-17T10:52:23.522Z,13.23
2019-02-17T10:54:51.411Z,15.93
2019-02-17T10:57:19.208Z,16.00
2019-02-17T10:59:47.011Z,20.47
2019-02-17T11:02:14.766Z,30.80
2019-02-17T11:04:42.593Z,19.83
2019-02-17T11:07:10.434Z,15.73
2019-02-17T11:09:38.207Z,15.73
2019-02-17T11:12:06.009Z,15.67
2019-02-17T11:14:33.774Z,15.60
2019-02-17T11:17:01.596Z,15.93
2019-02-17T11:19:39.961Z,20.83
2019-02-17T11:22:07.781Z,26.77
2019-02-17T11:24:35.589Z,18.97
2019-02-17T11:27:03.404Z,22.43
2019-02-17T11:29:31.333Z,16.87
2019-02-17T11:31:59.148Z,17.27
2019-02-17T11:34:27.020Z,16.27
2019-02-17T11:36:54.770Z,16.97
2019-02-17T11:39:22.694Z,17.63
2019-02-17T11:41:50.493Z,17.30
2019-02-17T11:44:18.321Z,20.50
2019-02-17T11:46:46.150Z,17.10
2019-02-17T11:49:33.479Z,21.50
2019-02-17T11:52:01.250Z,18.43
2019-02-17T11:54:29.101Z,18.67
2019-02-17T11:56:56.942Z,18.37
2019-02-17T11:59:24.766Z,19.00
2019-02-17T12:01:52.523Z,21.10
2019-02-17T12:04:20.366Z,17.17
2019-02-17T12:06:48.138Z,18.63
2019-02-17T12:09:16.080Z,18.37
2019-02-17T12:11:43.939Z,18.43
2019-02-17T12:14:11.830Z,18.83
2019-02-17T12:16:39.688Z,18.43
2019-02-17T12:19:12.722Z,18.87
2019-02-17T12:21:51.101Z,18.87
2019-02-17T12:24:21.567Z,19.73
2019-02-17T12:27:21.231Z,19.17
2019-02-17T12:29:52.835Z,18.93
2019-02-17T12:32:24.456Z,18.90
2019-02-17T12:34:52.348Z,19.67
2019-02-17T12:37:20.160Z,18.53
2019-02-17T12:39:48.016Z,20.43
2019-02-17T12:42:15.822Z,20.33
2019-02-17T12:44:43.658Z,20.57
2019-02-17T12:47:11.534Z,23.70
2019-02-17T12:49:49.558Z,20.83
2019-02-17T12:52:17.349Z,20.10
2019-02-17T12:54:47.409Z,19.23
2019-02-17T12:57:15.183Z,19.80
2019-02-17T12:59:43.027Z,20.17
2019-02-17T13:02:10.874Z,19.90
2019-02-17T13:04:41.685Z,19.20
2019-02-17T13:07:09.467Z,19.93
2019-02-17T13:09:37.303Z,19.60
2019-02-17T13:12:05.102Z,19.83
2019-02-17T13:14:32.905Z,19.30
2019-02-17T13:17:11.962Z,19.17
2019-02-17T13:19:41.379Z,19.60
2019-02-17T13:22:09.266Z,19.33
2019-02-17T13:24:37.073Z,20.07
2019-02-17T13:27:04.920Z,19.37
2019-02-17T13:29:40.395Z,19.73
2019-02-17T13:32:08.203Z,20.57
2019-02-17T13:34:36.077Z,19.60
2019-02-17T13:37:03.828Z,21.43
2019-02-17T13:39:31.683Z,20.37
2019-02-17T13:41:59.498Z,19.53
2019-02-17T13:44:27.325Z,25.63
2019-02-17T13:46:55.064Z,19.77
2019-02-17T13:49:22.918Z,19.87
2019-02-17T13:51:51.141Z,20.00
2019-02-17T13:54:19.989Z,20.30
2019-02-17T13:56:48.294Z,21.17
2019-02-17T13:59:16.193Z,21.67
2019-02-17T14:01:44.078Z,62.33
2019-02-17T14:04:11.903Z,25.43
2019-02-17T14:06:39.765Z,21.23
2019-02-17T14:09:07.985Z,21.27
2019-02-17T14:11:35.876Z,20.90
2019-02-17T14:14:03.710Z,20.43
2019-02-17T14:16:31.621Z,21.27
2019-02-17T14:18:59.509Z,21.83
2019-02-17T14:21:30.083Z,23.30
2019-02-17T14:23:58.244Z,24.00
2019-02-17T14:26:26.149Z,20.73
2019-02-17T14:28:53.990Z,23.93
2019-02-17T14:31:21.885Z,21.80
2019-02-17T14:33:58.377Z,25.97
2019-02-17T14:36:20.235Z,22.40
2019-02-17T14:38:48.075Z,22.67
2019-02-17T14:41:18.615Z,22.30
2019-02-17T14:43:46.499Z,21.83
2019-02-17T14:46:14.441Z,21.30
2019-02-17T14:48:43.799Z,21.63
2019-02-17T15:04:17.103Z,22.47
2019-02-17T15:06:44.884Z,22.23
2019-02-17T15:09:12.856Z,23.07
2019-02-17T15:11:40.648Z,22.83
2019-02-17T15:14:10.859Z,22.80
2019-02-17T15:16:38.616Z,21.40
2019-02-17T15:19:06.660Z,21.53
2019-02-17T15:21:34.472Z,20.90
2019-02-17T15:24:02.401Z,20.57
2019-02-17T15:26:30.216Z,21.87
2019-02-17T15:28:58.354Z,21.43
2019-02-17T15:31:30.935Z,21.23
2019-02-17T15:33:58.659Z,21.13
2019-02-17T15:36:26.482Z,21.33
2019-02-17T15:38:54.566Z,21.83
2019-02-17T15:41:22.370Z,20.67
2019-02-17T15:43:50.586Z,20.47
2019-02-17T15:46:18.406Z,20.10
2019-02-17T15:48:46.223Z,31.13
2019-02-17T15:51:17.021Z,20.00
2019-02-17T15:53:44.813Z,20.10
2019-02-17T15:56:12.710Z,19.57
2019-02-17T15:58:40.520Z,18.93
2019-02-17T16:01:08.344Z,19.83
2019-02-17T16:03:36.220Z,19.57
2019-02-17T16:06:04.008Z,20.97
2019-02-17T16:08:31.881Z,21.23
2019-02-17T16:10:59.689Z,22.20
2019-02-17T16:13:27.495Z,23.57
2019-02-17T16:15:55.377Z,21.30
2019-02-17T16:18:23.221Z,22.70
2019-02-17T16:20:51.040Z,20.17
2019-02-17T16:23:18.849Z,20.07
2019-02-17T16:25:46.714Z,19.23
2019-02-17T16:28:15.382Z,20.57
2019-02-17T16:30:43.156Z,20.10
2019-02-17T16:33:11.097Z,21.03
2019-02-17T16:35:38.910Z,21.53
2019-02-17T16:38:06.838Z,21.77
2019-02-17T16:40:34.623Z,22.97
2019-02-17T16:43:02.864Z,24.60
2019-02-17T16:45:30.728Z,23.40
2019-02-17T16:47:58.587Z,22.23
2019-02-17T16:50:26.442Z,22.43
2019-02-17T16:52:59.115Z,22.40
2019-02-17T16:55:29.154Z,26.03
2019-02-17T16:58:01.665Z,22.80
2019-02-17T17:00:31.283Z,21.07
2019-02-17T17:03:10.039Z,20.93
2019-02-17T17:05:39.635Z,23.87
2019-02-17T17:08:14.809Z,23.57
2019-02-17T17:10:42.636Z,20.77
2019-02-17T17:13:10.498Z,22.67
2019-02-17T17:15:38.291Z,20.90
2019-02-17T17:18:06.107Z,20.83
2019-02-17T17:20:34.210Z,21.60
2019-02-17T17:23:01.951Z,22.40
2019-02-17T17:25:29.797Z,25.73
2019-02-17T17:27:57.630Z,22.10
2019-02-17T17:30:25.508Z,20.60
2019-02-17T17:32:53.305Z,21.43
2019-02-17T17:35:21.170Z,23.43
2019-02-17T17:38:08.434Z,24.40
2019-02-17T17:40:48.747Z,26.23
2019-02-17T17:43:16.600Z,25.93
2019-02-17T17:45:44.398Z,24.30
2019-02-17T17:48:12.265Z,27.43
2019-02-17T17:51:10.599Z,27.80
2019-02-17T17:53:38.425Z,25.57
2019-02-17T17:56:06.286Z,25.20
2019-02-17T17:58:34.085Z,25.33
2019-02-17T18:01:02.069Z,24.63
2019-02-17T18:03:29.877Z,22.10
2019-02-17T18:05:57.737Z,21.43
2019-02-17T18:08:25.555Z,20.17
2019-02-17T18:10:53.473Z,19.70
2019-02-17T18:13:22.046Z,20.23
2019-02-17T18:15:49.943Z,19.50
2019-02-17T18:18:17.758Z,20.07
2019-02-17T18:20:45.634Z,18.70
2019-02-17T18:23:13.450Z,20.60
2019-02-17T18:25:41.330Z,20.83
2019-02-17T18:28:09.195Z,26.30
2019-02-17T18:30:37.068Z,22.43
2019-02-17T18:33:05.939Z,24.00
2019-02-17T18:35:35.258Z,20.30
2019-02-17T18:38:03.778Z,20.57
2019-02-17T18:40:31.655Z,21.33
2019-02-17T18:42:59.539Z,18.87
2019-02-17T18:45:27.379Z,20.57
2019-02-17T18:47:55.254Z,21.87
2019-02-17T18:50:28.375Z,21.97
2019-02-17T18:52:56.248Z,20.93
2019-02-17T18:55:24.054Z,20.97
2019-02-17T18:57:51.899Z,21.10
2019-02-17T19:00:20.016Z,19.93
2019-02-17T19:02:47.939Z,20.37
2019-02-17T19:05:15.843Z,24.87
2019-02-17T19:07:43.761Z,26.63
2019-02-17T19:10:16.657Z,26.33
2019-02-17T19:12:44.719Z,24.83
2019-02-17T19:15:12.950Z,24.23
2019-02-17T19:17:40.874Z,23.67
2019-02-17T19:20:12.135Z,25.30
2019-02-17T19:22:40.062Z,24.13
2019-02-17T19:25:08.303Z,25.67
2019-02-17T19:27:36.418Z,23.40
2019-02-17T19:30:05.162Z,23.50
2019-02-17T19:32:33.054Z,22.97
2019-02-17T19:35:01.065Z,22.37
2019-02-17T19:37:28.892Z,22.43
2019-02-17T19:40:02.110Z,21.97
2019-02-17T19:42:29.989Z,21.10
2019-02-17T19:44:57.840Z,21.00
2019-02-17T19:47:25.804Z,20.90
2019-02-17T19:49:58.717Z,21.47
2019-02-17T19:52:26.593Z,20.70
2019-02-17T19:54:54.535Z,22.23
2019-02-17T19:57:22.459Z,21.07
2019-02-17T19:59:50.366Z,19.37
2019-02-17T20:02:21.737Z,20.73
2019-02-17T20:05:05.844Z,20.43
2019-02-17T20:07:33.694Z,18.83
2019-02-17T20:10:01.579Z,19.13
2019-02-17T20:12:29.409Z,17.40
2019-02-17T20:14:57.246Z,20.13
2019-02-17T20:17:25.157Z,20.13
2019-02-17T20:19:53.070Z,21.03
2019-02-17T20:22:21.019Z,22.57
2019-02-17T20:24:48.846Z,22.93
2019-02-17T20:27:16.702Z,24.53
2019-02-17T20:29:44.522Z,23.87
2019-02-17T20:32:12.420Z,22.83
2019-02-17T20:34:40.248Z,25.73
2019-02-17T20:37:08.113Z,25.90
2019-02-17T20:39:35.919Z,23.73
2019-02-17T20:42:03.798Z,24.00
2019-02-17T20:44:31.678Z,22.77
2019-02-17T20:47:18.946Z,25.20
2019-02-17T20:49:46.835Z,21.47
2019-02-17T20:52:14.675Z,20.93
2019-02-17T20:54:42.546Z,21.97
2019-02-17T20:57:10.405Z,23.70
2019-02-17T20:59:38.526Z,22.70
2019-02-17T21:02:07.087Z,22.83
2019-02-17T21:04:35.000Z,23.50
2019-02-17T21:07:02.861Z,21.27
2019-02-17T21:09:30.647Z,23.50
2019-02-17T21:12:04.692Z,22.70
2019-02-17T21:14:33.096Z,23.57
2019-02-17T21:17:03.741Z,27.37
2019-02-17T21:19:34.001Z,23.70
2019-02-17T21:22:01.933Z,24.63
2019-02-17T21:24:29.792Z,23.87
2019-02-17T21:26:57.591Z,23.10
2019-02-17T21:29:30.845Z,22.73
2019-02-17T21:31:58.693Z,20.60
2019-02-17T21:34:26.580Z,21.73
2019-02-17T21:36:54.431Z,23.83
2019-02-17T21:39:27.462Z,22.80
2019-02-17T21:41:57.066Z,22.50
2019-02-17T21:44:24.884Z,26.53
2019-02-17T21:46:52.735Z,24.33
2019-02-17T21:49:20.607Z,40.37
2019-02-17T21:51:48.425Z,24.63
2019-02-17T21:54:16.259Z,21.77
2019-02-17T21:56:44.067Z,20.57
2019-02-17T21:59:12.011Z,19.53
2019-02-17T22:01:39.850Z,22.67
2019-02-17T22:04:07.645Z,26.50
2019-02-17T22:06:35.458Z,21.97
2019-02-17T22:09:05.518Z,23.47
2019-02-17T22:11:33.797Z,22.27
2019-02-17T22:14:01.600Z,24.03
2019-02-17T22:16:29.388Z,23.63
2019-02-17T22:18:57.203Z,24.70
2019-02-17T22:21:24.976Z,25.00
2019-02-17T22:23:52.776Z,25.87
2019-02-17T22:26:20.551Z,24.13
2019-02-17T22:28:48.390Z,24.03
2019-02-17T22:31:16.210Z,26.07
2019-02-17T22:33:43.965Z,22.63
2019-02-17T22:36:12.494Z,23.27
2019-02-17T22:38:40.288Z,20.03
2019-02-17T22:41:08.073Z,21.90
2019-02-17T22:43:35.889Z,20.63
2019-02-17T22:46:03.720Z,26.20
2019-02-17T22:48:31.442Z,24.90
2019-02-17T22:50:59.401Z,27.10
2019-02-17T22:53:27.259Z,26.93
2019-02-17T22:55:55.059Z,24.67
2019-02-17T22:58:22.826Z,28.40
2019-02-17T23:01:01.241Z,28.37
2019-02-17T23:03:30.321Z,27.50
2019-02-17T23:05:58.138Z,25.83
2019-02-17T23:08:25.911Z,24.00
2019-02-17T23:10:53.726Z,22.03
2019-02-17T23:13:40.943Z,21.13
2019-02-17T23:16:08.767Z,19.73
2019-02-17T23:18:36.551Z,19.13
2019-02-17T23:21:04.394Z,19.47
2019-02-17T23:23:32.230Z,25.30
2019-02-17T23:26:00.037Z,20.67
2019-02-17T23:28:27.855Z,19.57
2019-02-17T23:31:15.316Z,18.90
2019-02-17T23:33:43.123Z,19.50
2019-02-17T23:36:10.947Z,20.20
2019-02-17T23:38:38.785Z,19.80
2019-02-17T23:41:06.678Z,17.73
2019-02-17T23:43:34.433Z,17.20
2019-02-17T23:46:02.264Z,17.50
2019-02-17T23:48:30.075Z,17.07
2019-02-17T23:50:57.936Z,17.03
2019-02-17T23:53:25.795Z,16.23
2019-02-17T23:55:53.611Z,17.52
2019-02-17T23:58:21.439Z,16.07
